Time;durP1;ratioP1;P1;durP2;ratioP2;P2;SDS_P1;SDS_P2;PMS_P1;PMS_P2;Temp;Humidity;BMP_temperature;BMP_pressure;BME280_temperature;BME280_humidity;BME280_pressure;Samples;Min_cycle;Max_cycle;Signal;HPM_P1;HPM_P2
2022/06/16 00:00:30;;;;;;;1.95;0.95;;;26.70;87.00;;;;;;5060456;28;20044;-63
2022/06/16 00:02:58;;;;;;;0.80;0.77;;;26.70;86.90;;;;;;5054919;28;20053;-62
2022/06/16 00:05:29;;;;;;;0.65;0.63;;;26.70;87.20;;;;;;5059944;28;20064;-62
2022/06/16 00:07:56;;;;;;;1.20;1.10;;;26.60;87.30;;;;;;5050373;28;20047;-61
2022/06/16 00:10:24;;;;;;;;;;;26.70;87.40;;;;;;5064215;28;20056;-62
2022/06/16 00:12:51;;;;;;;;;;;26.60;87.60;;;;;;5062908;28;20415;-64
2022/06/16 00:15:22;;;;;;;1.40;0.95;;;26.70;87.50;;;;;;5049876;28;19931;-63
2022/06/16 00:17:50;;;;;;;0.25;0.25;;;26.70;87.20;;;;;;5058671;28;20044;-63
2022/06/16 00:20:17;;;;;;;0.65;0.65;;;26.70;87.60;;;;;;5066850;28;20640;-62
2022/06/16 00:22:45;;;;;;;0.50;0.50;;;26.70;87.00;;;;;;5057598;28;20045;-64
2022/06/16 00:25:13;;;;;;;0.43;0.43;;;26.70;86.90;;;;;;5050532;28;20485;-63
2022/06/16 00:27:41;;;;;;;0.60;0.60;;;26.70;87.10;;;;;;5052879;28;20045;-63
2022/06/16 00:30:10;;;;;;;1.20;1.10;;;26.60;86.80;;;;;;5051096;28;20072;-63
2022/06/16 00:32:39;;;;;;;1.38;0.90;;;26.60;87.60;;;;;;5059331;28;20052;-63
2022/06/16 00:35:07;;;;;;;2.55;1.38;;;26.70;86.80;;;;;;5045509;28;20068;-63
2022/06/16 00:37:35;;;;;;;0.88;0.88;;;26.60;87.10;;;;;;5049848;28;20262;-63
2022/06/16 00:40:03;;;;;;;3.35;0.95;;;26.60;87.10;;;;;;5058353;28;20041;-63
2022/06/16 00:42:30;;;;;;;0.55;0.55;;;26.60;86.90;;;;;;5058728;28;20045;-63
2022/06/16 00:44:58;;;;;;;0.65;0.65;;;26.60;86.90;;;;;;5064951;28;20408;-62
2022/06/16 00:47:29;;;;;;;0.52;0.52;;;26.60;87.00;;;;;;5061782;28;20049;-62
2022/06/16 00:50:03;;;;;;;5.03;2.25;;;26.60;86.60;;;;;;5070422;28;20048;-62
2022/06/16 00:52:33;;;;;;;2.20;1.27;;;26.60;86.70;;;;;;5049438;28;20635;-61
2022/06/16 00:55:05;;;;;;;0.47;0.47;;;26.60;86.50;;;;;;5059438;28;20053;-59
2022/06/16 00:57:36;;;;;;;1.50;1.20;;;26.60;86.80;;;;;;5053111;28;20056;-62
2022/06/16 01:00:12;;;;;;;0.77;0.70;;;26.60;86.90;;;;;;5067982;28;20594;-64
2022/06/16 01:02:39;;;;;;;0.52;0.52;;;26.60;86.80;;;;;;5064265;28;20052;-63
2022/06/16 01:05:07;;;;;;;0.50;0.50;;;26.60;86.60;;;;;;5070545;28;20052;-62
2022/06/16 01:07:37;;;;;;;;;;;26.60;86.80;;;;;;5086519;28;20162;-64
2022/06/16 01:10:07;;;;;;;2.85;1.48;;;26.60;87.20;;;;;;5061470;28;19960;-63
2022/06/16 01:16:18;;;;;;;0.52;0.52;;;26.60;86.50;;;;;;5060817;28;20563;-63
2022/06/16 01:19:10;;;;;;;0.63;0.63;;;26.60;87.00;;;;;;5056019;28;20060;-62
2022/06/16 01:21:48;;;;;;;0.75;0.75;;;26.60;86.90;;;;;;5054189;28;20464;-62
2022/06/16 01:24:34;;;;;;;0.82;0.82;;;26.60;87.10;;;;;;5054100;28;20535;-63
2022/06/16 01:27:32;;;;;;;1.20;0.77;;;26.60;86.30;;;;;;5055369;28;20632;-62
2022/06/16 01:30:06;;;;;;;1.77;1.13;;;26.60;86.50;;;;;;5061864;28;20083;-64
2022/06/16 01:32:48;;;;;;;1.00;0.95;;;26.60;86.80;;;;;;5063105;28;20052;-60
2022/06/16 01:35:22;;;;;;;17.08;2.47;;;26.60;86.40;;;;;;5057888;28;20067;-62
2022/06/16 01:37:56;;;;;;;1.38;0.82;;;26.60;87.00;;;;;;5033255;28;20041;-62
2022/06/16 01:40:43;;;;;;;1.33;0.98;;;26.60;87.10;;;;;;5064601;28;20051;-61
2022/06/16 01:43:35;;;;;;;0.70;0.70;;;26.60;86.70;;;;;;5050709;28;20052;-62
2022/06/16 01:46:11;;;;;;;4.03;1.10;;;26.60;86.90;;;;;;5055678;28;20049;-62
2022/06/16 01:48:43;;;;;;;1.85;1.15;;;26.60;86.80;;;;;;5046350;28;20057;-62
2022/06/16 01:51:30;;;;;;;1.30;0.95;;;26.60;86.70;;;;;;5058539;28;20045;-62
2022/06/16 01:54:03;;;;;;;1.25;1.15;;;26.50;86.90;;;;;;5046429;28;20515;-61
2022/06/16 01:56:54;;;;;;;3.72;1.27;;;26.60;86.60;;;;;;5056353;28;20056;-64
2022/06/16 01:59:25;;;;;;;0.73;0.73;;;26.50;86.90;;;;;;5031412;28;20060;-61
2022/06/16 02:02:00;;;;;;;1.83;0.90;;;26.60;86.40;;;;;;5063770;28;20056;-62
2022/06/16 02:04:35;;;;;;;0.52;0.40;;;26.50;86.80;;;;;;5029999;28;20080;-63
2022/06/16 02:07:07;;;;;;;3.72;1.38;;;26.50;86.70;;;;;;5070109;28;20045;-63
2022/06/16 02:09:41;;;;;;;0.50;0.50;;;26.50;86.40;;;;;;5036236;28;20056;-63
2022/06/16 02:12:55;;;;;;;0.30;0.30;;;26.60;86.30;;;;;;5069827;28;20053;-63
2022/06/16 02:15:10;;;;;;;0.60;0.60;;;26.50;85.80;;;;;;5052442;28;20423;-62
2022/06/16 02:17:50;;;;;;;3.85;1.10;;;26.60;85.90;;;;;;5042510;28;20056;-62
2022/06/16 02:20:18;;;;;;;;;;;26.60;86.00;;;;;;5057639;28;20052;-61
2022/06/16 02:22:46;;;;;;;1.60;0.95;;;26.60;85.90;;;;;;5045899;28;20273;-61
2022/06/16 02:25:15;;;;;;;1.10;0.77;;;26.50;86.80;;;;;;5054749;28;20052;-61
2022/06/16 02:27:43;;;;;;;0.40;0.40;;;26.60;86.80;;;;;;5031173;28;20151;-62
2022/06/16 02:30:12;;;;;;;35.28;3.53;;;26.50;87.10;;;;;;5036114;28;20044;-62
2022/06/16 02:33:24;;;;;;;1.38;1.27;;;26.50;86.50;;;;;;5055318;28;20060;-63
2022/06/16 02:36:19;;;;;;;0.75;0.75;;;26.50;87.20;;;;;;5045702;28;20135;-60
2022/06/16 02:39:12;;;;;;;0.40;0.40;;;26.50;86.70;;;;;;5045684;28;20068;-62
2022/06/16 02:42:16;;;;;;;1.27;0.60;;;26.50;86.20;;;;;;5045234;28;20056;-62
2022/06/16 02:45:14;;;;;;;0.40;0.40;;;26.50;86.00;;;;;;5050149;28;20079;-62
2022/06/16 02:48:06;;;;;;;0.65;0.65;;;26.50;86.80;;;;;;5051755;28;20064;-61
2022/06/16 02:50:47;;;;;;;0.50;0.50;;;26.50;86.70;;;;;;5073398;28;20052;-61
2022/06/16 02:53:22;;;;;;;2.65;1.27;;;26.40;86.90;;;;;;5031567;28;20053;-63
2022/06/16 02:55:55;;;;;;;0.30;0.30;;;26.50;87.20;;;;;;5049838;28;20055;-61
2022/06/16 02:58:24;;;;;;;0.82;0.82;;;26.50;86.70;;;;;;5050433;28;20045;-63
2022/06/16 03:00:54;;;;;;;1.80;1.00;;;26.40;87.00;;;;;;5047884;28;20051;-63
2022/06/16 03:03:29;;;;;;;0.60;0.60;;;26.50;86.40;;;;;;5034070;28;20045;-62
2022/06/16 03:06:17;;;;;;;0.60;0.60;;;26.40;86.60;;;;;;5047205;28;20045;-62
2022/06/16 03:08:50;;;;;;;0.70;0.70;;;26.40;86.80;;;;;;5029228;28;20049;-62
2022/06/16 03:11:17;;;;;;;0.82;0.82;;;26.40;87.10;;;;;;5057497;28;20057;-63
2022/06/16 03:13:44;;;;;;;1.45;0.93;;;26.40;86.90;;;;;;5061166;28;20049;-63
2022/06/16 03:16:25;;;;;;;0.32;0.32;;;26.40;87.10;;;;;;5081489;28;20064;-63
2022/06/16 03:18:53;;;;;;;0.68;0.68;;;26.40;87.10;;;;;;5034489;28;20051;-63
2022/06/16 03:21:20;;;;;;;;;;;26.40;86.40;;;;;;5050798;28;20040;-63
2022/06/16 03:23:48;;;;;;;1.17;1.05;;;26.40;86.80;;;;;;5068505;28;19947;-62
2022/06/16 03:26:16;;;;;;;0.50;0.50;;;26.40;86.40;;;;;;5050181;28;20049;-62
2022/06/16 03:28:43;;;;;;;;;;;26.40;86.50;;;;;;5062033;28;20041;-63
2022/06/16 03:31:14;;;;;;;0.50;0.50;;;26.40;86.40;;;;;;5055393;28;19931;-62
2022/06/16 03:33:42;;;;;;;;;;;26.40;86.50;;;;;;5048978;28;20060;-63
2022/06/16 03:36:14;;;;;;;1.30;1.20;;;26.40;86.00;;;;;;5074557;28;20316;-63
2022/06/16 03:38:44;;;;;;;2.42;1.15;;;26.40;86.00;;;;;;5036043;28;20520;-63
2022/06/16 03:41:15;;;;;;;0.50;0.50;;;26.30;86.00;;;;;;5071366;28;20048;-64
2022/06/16 03:43:43;;;;;;;0.50;0.50;;;26.30;86.00;;;;;;5035018;28;20064;-60
2022/06/16 03:46:17;;;;;;;1.77;0.98;;;26.30;86.10;;;;;;5034047;28;20048;-61
2022/06/16 03:49:03;;;;;;;0.60;0.60;;;26.30;86.10;;;;;;5061610;28;20048;-62
2022/06/16 03:51:41;;;;;;;0.82;0.82;;;26.30;86.10;;;;;;5054776;28;20049;-62
2022/06/16 03:54:09;;;;;;;;;;;26.30;86.10;;;;;;5044292;28;20542;-63
2022/06/16 03:56:37;;;;;;;2.08;1.58;;;26.30;86.10;;;;;;5054827;28;19935;-61
2022/06/16 03:59:13;;;;;;;0.65;0.65;;;26.30;86.10;;;;;;5059987;28;20049;-64
2022/06/16 04:01:41;;;;;;;1.75;1.13;;;26.30;86.10;;;;;;5067802;28;20060;-63
2022/06/16 04:04:08;;;;;;;0.75;0.38;;;26.30;86.10;;;;;;5063962;28;20036;-63
2022/06/16 04:07:02;;;;;;;0.60;0.60;;;26.30;86.10;;;;;;5057922;28;20052;-62
2022/06/16 04:09:29;;;;;;;;;;;26.30;86.10;;;;;;5064543;28;20064;-63
2022/06/16 04:12:00;;;;;;;2.25;0.77;;;26.30;86.00;;;;;;5045834;28;19931;-63
2022/06/16 04:14:28;;;;;;;2.15;1.45;;;26.30;85.90;;;;;;5058139;28;20049;-63
2022/06/16 04:16:58;;;;;;;1.20;0.75;;;26.30;85.90;;;;;;5050449;28;20041;-62
2022/06/16 04:20:11;;;;;;;0.60;0.60;;;26.30;85.80;;;;;;5036508;28;20048;-62
2022/06/16 04:22:26;;;;;;;0.30;0.30;;;26.30;86.50;;;;;;5048100;28;20059;-62
2022/06/16 04:25:04;;;;;;;;;;;26.30;85.80;;;;;;5036713;28;20044;-63
2022/06/16 04:27:33;;;;;;;0.68;0.68;;;26.20;83.10;;;;;;5040193;28;19928;-63
2022/06/16 04:30:05;;;;;;;0.70;0.70;;;26.00;81.10;;;;;;5059271;28;20057;-62
2022/06/16 04:32:32;;;;;;;1.88;1.25;;;25.90;79.50;;;;;;5053264;28;20066;-66
2022/06/16 04:35:00;;;;;;;0.57;0.57;;;25.80;79.50;;;;;;5056658;28;20053;-63
2022/06/16 04:37:34;;;;;;;0.68;0.68;;;25.70;79.10;;;;;;5047856;28;20049;-63
2022/06/16 04:40:01;;;;;;;0.50;0.50;;;25.70;78.90;;;;;;5077497;28;20041;-63
2022/06/16 04:42:31;;;;;;;1.85;1.13;;;25.60;78.40;;;;;;5067772;28;20052;-63
2022/06/16 04:45:00;;;;;;;0.40;0.40;;;25.60;78.50;;;;;;5064836;28;20053;-60
2022/06/16 04:47:27;;;;;;;1.63;1.27;;;25.60;79.10;;;;;;5065081;28;20059;-61
2022/06/16 04:49:55;;;;;;;;;;;25.70;79.60;;;;;;5070446;28;20055;-60
2022/06/16 04:52:22;;;;;;;0.50;0.50;;;25.80;79.90;;;;;;5071439;28;19924;-61
2022/06/16 04:54:53;;;;;;;0.85;0.85;;;25.90;80.70;;;;;;5082051;28;20401;-61
2022/06/16 04:58:04;;;;;;;1.25;0.95;;;26.00;80.40;;;;;;5060697;28;20057;-60
2022/06/16 05:00:50;;;;;;;0.57;0.57;;;26.00;80.70;;;;;;5061045;28;20064;-61
2022/06/16 05:03:50;;;;;;;0.40;0.40;;;26.00;81.10;;;;;;5059668;28;20396;-60
2022/06/16 05:06:25;;;;;;;4.13;2.15;;;26.00;81.40;;;;;;5066973;28;20393;-59
2022/06/16 05:08:56;;;;;;;0.63;0.63;;;26.10;81.80;;;;;;5027586;28;20093;-61
2022/06/16 05:11:42;;;;;;;0.65;0.65;;;26.10;82.10;;;;;;5023455;28;20057;-61
2022/06/16 05:14:35;;;;;;;0.40;0.40;;;26.10;82.30;;;;;;5015490;28;20519;-60
2022/06/16 05:17:14;;;;;;;1.15;0.70;;;26.10;82.70;;;;;;5038000;28;20049;-60
2022/06/16 05:20:09;;;;;;;0.43;0.43;;;26.10;82.90;;;;;;5014227;28;20045;-59
2022/06/16 05:23:15;;;;;;;0.93;0.93;;;26.10;83.10;;;;;;5021596;28;20057;-59
2022/06/16 05:25:54;;;;;;;1.65;1.10;;;26.10;83.40;;;;;;5020462;28;20327;-60
2022/06/16 05:28:38;;;;;;;0.80;0.80;;;26.10;83.50;;;;;;5047292;28;20450;-60
2022/06/16 05:31:12;;;;;;;0.65;0.60;;;26.10;83.70;;;;;;5013067;28;20050;-59
2022/06/16 05:33:58;;;;;;;1.07;1.03;;;26.10;83.90;;;;;;5033010;28;20524;-57
2022/06/16 05:36:48;;;;;;;2.20;1.27;;;26.10;84.10;;;;;;5026051;28;20136;-59
2022/06/16 05:39:47;;;;;;;2.10;1.25;;;26.10;84.20;;;;;;4997743;28;20061;-59
2022/06/16 05:42:32;;;;;;;1.23;0.68;;;26.20;84.50;;;;;;5018316;28;20045;-59
2022/06/16 05:45:14;;;;;;;0.85;0.63;;;26.20;84.70;;;;;;5029886;28;20049;-59
2022/06/16 05:47:54;;;;;;;1.55;0.70;;;26.20;84.70;;;;;;5032728;28;20056;-59
2022/06/16 05:50:25;;;;;;;0.50;0.50;;;26.20;85.00;;;;;;5021170;28;20401;-59
2022/06/16 05:52:54;;;;;;;0.47;0.47;;;26.20;85.70;;;;;;5012130;28;20429;-57
2022/06/16 05:55:26;;;;;;;1.25;0.55;;;26.20;85.20;;;;;;5017760;28;20329;-57
2022/06/16 05:57:53;;;;;;;0.55;0.50;;;26.20;85.30;;;;;;5029580;28;20497;-61
2022/06/16 06:00:21;;;;;;;1.63;1.25;;;26.20;85.60;;;;;;5015169;28;20046;-60
2022/06/16 06:02:57;;;;;;;0.60;0.60;;;26.20;85.80;;;;;;5036594;28;20060;-61
2022/06/16 06:05:30;;;;;;;1.83;1.55;;;26.10;85.90;;;;;;5027678;28;20053;-59
2022/06/16 06:16:37;;;;;;;1.77;1.60;;;26.20;86.40;;;;;;5049788;28;20049;-58
2022/06/16 06:19:23;;;;;;;1.67;1.08;;;26.20;90.70;;;;;;5047723;28;20055;-60
2022/06/16 06:21:59;;;;;;;0.40;0.40;;;26.20;92.20;;;;;;5032585;28;20053;-60
2022/06/16 06:24:30;;;;;;;1.25;1.20;;;26.20;92.20;;;;;;5060385;28;20045;-60
2022/06/16 06:27:09;;;;;;;1.38;0.88;;;26.20;92.10;;;;;;5077494;28;20053;-60
2022/06/16 06:29:36;;;;;;;0.75;0.75;;;26.20;92.10;;;;;;5068800;28;20045;-60
2022/06/16 06:32:05;;;;;;;0.40;0.40;;;26.20;92.00;;;;;;5054330;28;20044;-61
2022/06/16 06:34:32;;;;;;;3.53;1.42;;;26.20;92.00;;;;;;5046077;28;20045;-60
2022/06/16 06:36:59;;;;;;;1.35;1.15;;;26.20;92.00;;;;;;5046347;28;20064;-59
2022/06/16 06:39:27;;;;;;;0.80;0.60;;;26.20;92.00;;;;;;5045954;28;20068;-59
2022/06/16 06:41:54;;;;;;;0.57;0.57;;;26.20;91.90;;;;;;5043858;28;20072;-61
2022/06/16 06:44:21;;;;;;;3.40;1.63;;;26.30;91.90;;;;;;5044341;28;20068;-60
2022/06/16 06:46:49;;;;;;;1.55;1.10;;;26.30;91.90;;;;;;5044205;28;20756;-59
2022/06/16 06:49:17;;;;;;;2.90;1.38;;;26.30;92.00;;;;;;5040958;28;20037;-60
2022/06/16 06:51:44;;;;;;;2.80;1.63;;;26.30;92.00;;;;;;5048730;28;20458;-60
2022/06/16 06:54:11;;;;;;;1.55;1.17;;;26.30;92.00;;;;;;5047360;28;20053;-59
2022/06/16 06:56:39;;;;;;;0.60;0.60;;;26.30;92.10;;;;;;5057232;28;20047;-61
2022/06/16 06:59:07;;;;;;;;;;;26.30;92.00;;;;;;5052390;28;20052;-59
2022/06/16 07:01:34;;;;;;;0.80;0.80;;;26.30;92.00;;;;;;5057287;28;19924;-60
2022/06/16 07:04:02;;;;;;;;;;;26.30;91.90;;;;;;5081103;28;20368;-61
2022/06/16 07:06:30;;;;;;;0.45;0.45;;;26.40;92.10;;;;;;5065373;28;19961;-59
2022/06/16 07:08:58;;;;;;;0.38;0.35;;;26.40;91.90;;;;;;5073556;28;20053;-59
2022/06/16 07:11:25;;;;;;;;;;;26.40;91.90;;;;;;5073301;28;20044;-60
2022/06/16 07:13:53;;;;;;;0.82;0.77;;;26.40;91.90;;;;;;5066263;28;19927;-61
2022/06/16 07:16:21;;;;;;;4.35;1.92;;;26.40;91.90;;;;;;5055597;28;20396;-61
2022/06/16 07:18:49;;;;;;;4.15;1.25;;;26.40;92.00;;;;;;5064586;28;20041;-61
2022/06/16 07:21:16;;;;;;;1.10;0.73;;;26.40;92.00;;;;;;5059944;28;20220;-60
2022/06/16 07:23:44;;;;;;;2.05;1.10;;;26.50;92.10;;;;;;5065632;28;20048;-59
2022/06/16 07:26:13;;;;;;;3.30;1.92;;;26.50;92.20;;;;;;5071398;28;20051;-60
2022/06/16 07:28:40;;;;;;;0.50;0.50;;;26.40;92.10;;;;;;5067744;28;20044;-61
2022/06/16 07:31:07;;;;;;;6.68;2.63;;;26.50;92.30;;;;;;5044429;28;20053;-59
2022/06/16 07:33:56;;;;;;;0.25;0.25;;;26.50;92.40;;;;;;5060048;28;20052;-59
2022/06/16 07:36:24;;;;;;;4.07;1.80;;;26.50;92.60;;;;;;5069938;28;20053;-61
2022/06/16 07:38:51;;;;;;;6.00;2.85;;;26.50;94.00;;;;;;5061652;28;20052;-59
2022/06/16 07:41:36;;;;;;;7.07;4.32;;;26.60;95.90;;;;;;5068721;28;20045;-60
2022/06/16 07:44:07;;;;;;;5.40;3.00;;;26.50;95.70;;;;;;5068078;28;20155;-60
2022/06/16 07:46:36;;;;;;;9.18;3.65;;;26.60;96.10;;;;;;5060030;28;20049;-60
2022/06/16 07:49:05;;;;;;;3.10;1.88;;;26.60;96.40;;;;;;5059076;28;20432;-59
2022/06/16 07:51:33;;;;;;;5.80;2.85;;;26.60;96.50;;;;;;5068091;28;20085;-61
2022/06/16 07:54:04;;;;;;;4.70;2.75;;;26.60;96.80;;;;;;5053326;28;20048;-60
2022/06/16 07:56:31;;;;;;;;;;;26.60;96.90;;;;;;5067297;28;20052;-61
2022/06/16 07:58:59;;;;;;;1.50;1.40;;;26.60;96.80;;;;;;5068516;28;19921;-61
2022/06/16 08:01:26;;;;;;;9.10;4.40;;;26.70;97.10;;;;;;5067547;28;20381;-58
2022/06/16 08:03:53;;;;;;;;;;;26.70;97.40;;;;;;5068604;28;20064;-60
2022/06/16 08:06:27;;;;;;;;;;;26.60;97.60;;;;;;5073751;28;19924;-61
2022/06/16 08:08:54;;;;;;;1.10;1.02;;;26.70;97.80;;;;;;5062289;28;19924;-62
2022/06/16 08:14:08;;;;;;;7.28;2.85;;;26.70;97.70;;;;;;5063997;28;20535;-57
2022/06/16 08:16:36;;;;;;;3.72;3.08;;;26.70;98.00;;;;;;5054449;28;20049;-59
2022/06/16 08:19:04;;;;;;;2.47;1.52;;;26.70;98.00;;;;;;5056704;28;20068;-57
2022/06/16 08:21:32;;;;;;;6.38;2.50;;;26.70;98.20;;;;;;5060021;28;20036;-56
2022/06/16 08:23:59;;;;;;;2.72;2.05;;;26.70;97.80;;;;;;5068418;28;20359;-58
2022/06/16 08:26:27;;;;;;;;;;;26.70;97.30;;;;;;5073694;28;20056;-60
2022/06/16 08:28:57;;;;;;;1.88;1.65;;;26.70;97.30;;;;;;5063352;28;19925;-58
2022/06/16 08:31:25;;;;;;;0.52;0.52;;;26.60;96.40;;;;;;5069140;28;20048;-58
2022/06/16 08:33:53;;;;;;;1.65;1.00;;;26.60;94.60;;;;;;5066521;28;20048;-58
2022/06/16 08:36:21;;;;;;;1.88;1.70;;;26.60;94.40;;;;;;5056678;28;20067;-53
2022/06/16 08:38:49;;;;;;;4.35;2.55;;;26.60;94.30;;;;;;5054794;28;20500;-57
2022/06/16 08:41:26;;;;;;;;;;;26.60;94.00;;;;;;5063002;28;20374;-59
2022/06/16 08:44:22;;;;;;;1.33;0.73;;;26.60;94.10;;;;;;5060431;28;19924;-60
2022/06/16 08:47:02;;;;;;;0.90;0.55;;;26.60;93.80;;;;;;5054861;28;20520;-58
2022/06/16 08:49:40;;;;;;;0.73;0.73;;;26.60;94.40;;;;;;5071398;28;20079;-59
2022/06/16 08:52:52;;;;;;;0.85;0.85;;;26.70;93.50;;;;;;5068913;28;20060;-58
2022/06/16 08:55:27;;;;;;;0.98;0.63;;;26.70;93.40;;;;;;5063692;28;20571;-60
2022/06/16 08:58:26;;;;;;;0.85;0.85;;;26.60;93.50;;;;;;5043686;28;20124;-60
2022/06/16 09:00:58;;;;;;;1.20;1.10;;;26.70;93.30;;;;;;5061104;28;20508;-59
2022/06/16 09:04:00;;;;;;;0.40;0.40;;;26.50;84.10;;;;;;5068702;28;20056;-59
2022/06/16 09:07:09;;;;;;;1.20;1.10;;;26.30;80.60;;;;;;5056361;28;20059;-60
2022/06/16 09:12:47;;;;;;;1.05;0.95;;;26.30;77.90;;;;;;5065841;28;20052;-59
2022/06/16 09:15:35;;;;;;;1.02;1.02;;;26.30;78.40;;;;;;5066211;28;20317;-59
2022/06/16 09:18:21;;;;;;;1.45;1.17;;;26.40;79.60;;;;;;5033032;28;20059;-59
2022/06/16 09:21:26;;;;;;;2.75;1.38;;;26.50;82.40;;;;;;5065310;28;20527;-61
2022/06/16 09:23:58;;;;;;;2.38;1.42;;;26.50;84.90;;;;;;5050179;28;20049;-63
2022/06/16 09:26:53;;;;;;;3.55;1.52;;;26.60;86.80;;;;;;5066294;28;20040;-62
2022/06/16 09:29:20;;;;;;;2.53;1.10;;;26.60;87.70;;;;;;5036974;28;20542;-67
2022/06/16 09:31:58;;;;;;;1.17;0.80;;;26.60;88.70;;;;;;5072290;28;20055;-63
2022/06/16 09:34:52;;;;;;;3.00;1.77;;;26.60;90.10;;;;;;5065654;28;20055;-64
2022/06/16 09:37:32;;;;;;;0.60;0.60;;;26.70;90.50;;;;;;5066669;28;20045;-64
2022/06/16 09:40:13;;;;;;;1.35;0.95;;;26.70;90.80;;;;;;5066173;28;20055;-63
2022/06/16 09:42:56;;;;;;;1.85;1.40;;;26.80;91.00;;;;;;5061223;28;20036;-67
2022/06/16 09:45:51;;;;;;;0.70;0.68;;;26.80;91.00;;;;;;5063092;28;20051;-66
2022/06/16 09:48:26;;;;;;;0.60;0.60;;;26.80;91.20;;;;;;5065920;28;20044;-64
2022/06/16 09:51:01;;;;;;;2.35;0.95;;;26.80;91.30;;;;;;5061709;28;20461;-63
2022/06/16 09:53:44;;;;;;;0.73;0.73;;;26.80;90.90;;;;;;5067051;28;20377;-60
2022/06/16 09:56:51;;;;;;;0.60;0.60;;;26.70;91.10;;;;;;5063205;28;20283;-61
2022/06/16 09:59:25;;;;;;;;;;;26.70;91.20;;;;;;5003761;28;20163;-62
2022/06/16 10:02:01;;;;;;;0.65;0.60;;;26.70;91.90;;;;;;5060807;28;19924;-66
2022/06/16 10:04:29;;;;;;;5.60;2.28;;;26.70;92.40;;;;;;5063291;28;20039;-62
2022/06/16 10:07:07;;;;;;;;;;;26.70;92.20;;;;;;5068564;28;20059;-62
2022/06/16 10:09:49;;;;;;;1.92;1.25;;;26.70;92.40;;;;;;5066447;28;19924;-62
2022/06/16 10:12:41;;;;;;;0.70;0.70;;;26.80;92.20;;;;;;5061993;28;20033;-66
2022/06/16 10:15:31;;;;;;;0.98;0.98;;;26.80;92.60;;;;;;5064372;28;20049;-66
2022/06/16 10:17:59;;;;;;;0.60;0.60;;;26.80;92.10;;;;;;5059456;28;20055;-65
2022/06/16 10:20:28;;;;;;;;;;;26.80;92.20;;;;;;5065518;28;20049;-64
2022/06/16 10:23:12;;;;;;;2.42;1.13;;;26.70;92.30;;;;;;5064543;28;20442;-65
2022/06/16 10:25:48;;;;;;;0.55;0.55;;;26.70;92.30;;;;;;5063821;28;20044;-64
2022/06/16 10:28:29;;;;;;;1.13;0.50;;;26.70;92.20;;;;;;5065584;28;20055;-63
2022/06/16 10:31:00;;;;;;;0.50;0.50;;;26.70;92.40;;;;;;5060205;28;20115;-64
2022/06/16 10:33:36;;;;;;;0.40;0.40;;;26.70;92.10;;;;;;5048761;28;20056;-65
2022/06/16 10:36:22;;;;;;;0.90;0.73;;;26.70;92.10;;;;;;5057666;28;20056;-65
2022/06/16 10:39:34;;;;;;;0.55;0.55;;;26.70;92.10;;;;;;5069507;28;20416;-65
2022/06/16 10:42:24;;;;;;;3.90;2.85;;;26.70;92.00;;;;;;5060446;28;20274;-65
2022/06/16 10:44:56;;;;;;;0.38;0.38;;;26.60;85.00;;;;;;5060786;28;20112;-65
2022/06/16 10:47:55;;;;;;;0.52;0.52;;;26.60;80.00;;;;;;5062718;28;20049;-64
2022/06/16 10:50:28;;;;;;;1.63;0.50;;;26.60;78.00;;;;;;5064469;28;20068;-66
2022/06/16 10:53:07;;;;;;;2.38;0.98;;;26.80;77.60;;;;;;5064771;28;20059;-65
2022/06/16 10:55:42;;;;;;;3.60;0.95;;;26.80;76.90;;;;;;5055232;28;20052;-66
2022/06/16 10:58:30;;;;;;;0.63;0.63;;;26.80;78.40;;;;;;5065162;28;20781;-65
2022/06/16 11:01:23;;;;;;;0.35;0.35;;;26.70;79.50;;;;;;5038551;28;20531;-65
2022/06/16 11:04:02;;;;;;;1.65;0.55;;;26.60;80.80;;;;;;5065765;28;20143;-65
2022/06/16 11:06:30;;;;;;;0.43;0.43;;;26.60;82.50;;;;;;5064470;28;20049;-65
2022/06/16 11:09:05;;;;;;;2.58;1.73;;;26.60;83.70;;;;;;5068862;28;20411;-65
2022/06/16 11:11:45;;;;;;;0.30;0.30;;;26.70;84.80;;;;;;5071833;28;20511;-66
2022/06/16 11:14:18;;;;;;;1.17;0.75;;;26.70;85.80;;;;;;5012535;28;20053;-65
2022/06/16 11:16:52;;;;;;;2.92;2.05;;;26.60;85.90;;;;;;5028813;28;20044;-62
2022/06/16 11:19:44;;;;;;;0.45;0.40;;;26.60;87.90;;;;;;5041777;28;20067;-62
2022/06/16 11:22:16;;;;;;;1.38;1.23;;;26.60;88.30;;;;;;5041834;28;20048;-63
2022/06/16 11:25:19;;;;;;;0.75;0.75;;;26.60;88.80;;;;;;5028294;28;20053;-62
2022/06/16 11:27:50;;;;;;;0.57;0.57;;;26.60;89.20;;;;;;5000019;28;20057;-64
2022/06/16 11:30:42;;;;;;;0.75;0.75;;;26.60;89.90;;;;;;5040997;28;20055;-66
2022/06/16 11:36:35;;;;;;;0.40;0.40;;;26.70;90.30;;;;;;5046046;28;20071;-65
2022/06/16 11:39:16;;;;;;;0.40;0.40;;;26.70;90.50;;;;;;5051820;28;20048;-64
2022/06/16 11:41:46;;;;;;;1.85;1.05;;;26.70;90.80;;;;;;5056553;28;20067;-63
2022/06/16 11:44:16;;;;;;;2.75;1.70;;;26.70;90.80;;;;;;5060178;28;20049;-62
2022/06/16 11:46:56;;;;;;;0.25;0.25;;;26.70;91.00;;;;;;5061980;28;20053;-64
2022/06/16 11:49:37;;;;;;;0.93;0.75;;;26.70;91.20;;;;;;5044094;28;20506;-63
2022/06/16 11:52:18;;;;;;;0.80;0.80;;;26.70;91.20;;;;;;5052205;28;20848;-64
2022/06/16 11:55:07;;;;;;;3.45;1.30;;;26.70;91.30;;;;;;5060555;28;20056;-65
2022/06/16 11:57:50;;;;;;;0.38;0.32;;;26.70;91.50;;;;;;5060714;28;20075;-62
2022/06/16 12:00:26;;;;;;;0.20;0.20;;;26.70;91.50;;;;;;5051438;28;20067;-66
2022/06/16 12:03:39;;;;;;;1.45;1.15;;;26.80;91.60;;;;;;5061901;28;20419;-67
2022/06/16 12:06:35;;;;;;;1.05;0.70;;;26.70;91.50;;;;;;5062580;28;20156;-66
2022/06/16 12:09:28;;;;;;;0.25;0.25;;;26.80;91.80;;;;;;5045332;28;20056;-64
2022/06/16 12:12:06;;;;;;;0.63;0.63;;;26.70;91.60;;;;;;5066674;28;20064;-63
2022/06/16 12:14:51;;;;;;;0.32;0.32;;;26.80;83.60;;;;;;5067594;28;20048;-64
2022/06/16 12:17:18;;;;;;;0.30;0.30;;;26.80;76.80;;;;;;5075218;28;20056;-65
2022/06/16 12:19:58;;;;;;;0.30;0.30;;;26.80;71.70;;;;;;5067994;28;20051;-63
2022/06/16 12:23:06;;;;;;;0.55;0.50;;;26.70;68.90;;;;;;5054570;28;20469;-64
2022/06/16 12:25:55;;;;;;;0.22;0.22;;;26.80;66.40;;;;;;5061624;28;20048;-66
2022/06/16 12:28:39;;;;;;;0.45;0.45;;;26.80;62.80;;;;;;5061441;28;20055;-64
2022/06/16 12:31:36;;;;;;;0.90;0.57;;;26.80;64.40;;;;;;5060737;28;20499;-66
2022/06/16 12:34:40;;;;;;;0.20;0.20;;;26.90;63.70;;;;;;5063515;28;20053;-64
2022/06/16 12:37:16;;;;;;;1.67;1.42;;;26.90;65.00;;;;;;5050903;28;20052;-65
2022/06/16 12:40:01;;;;;;;0.47;0.47;;;26.90;64.20;;;;;;5061931;28;20073;-64
2022/06/16 12:42:33;;;;;;;0.55;0.50;;;26.80;63.80;;;;;;5065192;28;20045;-64
2022/06/16 12:45:46;;;;;;;0.68;0.68;;;26.80;65.00;;;;;;5064410;28;20041;-66
2022/06/16 12:48:27;;;;;;;0.30;0.30;;;26.90;62.80;;;;;;5064319;28;20060;-66
2022/06/16 12:51:02;;;;;;;2.20;1.27;;;26.90;62.10;;;;;;5067463;28;20044;-66
2022/06/16 12:53:41;;;;;;;0.30;0.30;;;27.00;61.80;;;;;;5063996;28;20091;-63
2022/06/16 12:56:15;;;;;;;1.95;1.10;;;26.90;62.40;;;;;;5059790;28;20052;-64
2022/06/16 12:58:53;;;;;;;0.43;0.43;;;27.00;61.10;;;;;;5059470;28;20052;-66
2022/06/16 13:01:20;;;;;;;0.63;0.63;;;27.00;61.30;;;;;;5074885;28;20052;-66
2022/06/16 13:04:07;;;;;;;0.82;0.82;;;27.10;61.40;;;;;;5060158;28;20041;-65
2022/06/16 13:06:35;;;;;;;0.52;0.52;;;27.10;62.90;;;;;;5066086;28;20036;-66
2022/06/16 13:09:06;;;;;;;0.63;0.60;;;27.10;62.50;;;;;;5046889;28;20408;-66
2022/06/16 13:12:04;;;;;;;0.43;0.43;;;27.10;62.60;;;;;;5068782;28;20684;-68
2022/06/16 13:14:40;;;;;;;1.05;0.77;;;27.00;63.30;;;;;;5067260;28;20044;-64
2022/06/16 13:17:10;;;;;;;0.55;0.52;;;27.00;65.60;;;;;;5064534;28;20037;-63
2022/06/16 13:19:51;;;;;;;1.35;0.50;;;27.10;66.80;;;;;;5059812;28;20048;-65
2022/06/16 13:22:23;;;;;;;0.30;0.30;;;27.10;67.90;;;;;;5072674;28;20055;-67
2022/06/16 13:24:51;;;;;;;0.32;0.32;;;27.20;69.60;;;;;;5067717;28;20074;-62
2022/06/16 13:27:31;;;;;;;0.73;0.73;;;27.20;71.00;;;;;;5066026;28;20415;-61
2022/06/16 13:30:04;;;;;;;0.35;0.35;;;27.20;71.20;;;;;;5062921;28;20047;-63
2022/06/16 13:32:36;;;;;;;1.10;0.75;;;27.30;71.50;;;;;;5067263;28;20055;-60
2022/06/16 13:35:12;;;;;;;0.50;0.50;;;27.30;72.20;;;;;;5065007;28;20056;-62
2022/06/16 13:37:48;;;;;;;0.47;0.47;;;27.30;72.70;;;;;;5065018;28;20055;-61
2022/06/16 13:40:22;;;;;;;45.75;5.05;;;27.30;72.90;;;;;;5063088;28;20048;-61
2022/06/16 13:42:56;;;;;;;0.57;0.57;;;27.40;74.40;;;;;;5063295;28;20056;-60
2022/06/16 13:45:29;;;;;;;0.43;0.43;;;27.40;75.70;;;;;;5066291;28;20041;-59
2022/06/16 13:48:16;;;;;;;0.40;0.40;;;27.40;75.60;;;;;;5071180;28;20039;-60
2022/06/16 13:50:48;;;;;;;0.88;0.50;;;27.40;75.90;;;;;;5065245;28;20029;-59
2022/06/16 13:53:46;;;;;;;0.30;0.30;;;27.40;75.40;;;;;;5067332;28;20048;-59
2022/06/16 13:56:22;;;;;;;0.30;0.30;;;27.50;75.40;;;;;;5058991;28;20666;-61
2022/06/16 13:59:28;;;;;;;0.32;0.32;;;27.50;75.50;;;;;;5055928;28;20041;-60
2022/06/16 14:02:08;;;;;;;0.20;0.20;;;27.50;75.60;;;;;;5066307;28;20055;-62
2022/06/16 14:04:49;;;;;;;0.47;0.47;;;27.60;75.90;;;;;;5060209;28;20045;-60